Time;durP1;ratioP1;P1;durP2;ratioP2;P2;SDS_P1;SDS_P2;PMS_P1;PMS_P2;Temp;Humidity;BMP_temperature;BMP_pressure;BME280_temperature;BME280_humidity;BME280_pressure;Samples;Min_cycle;Max_cycle;Signal;HPM_P1;HPM_P2
2022/01/25 00:08:26;;;;;;;54.90;32.80;;;5.00;99.90;;;;;;6160579;23;20023;-87
2022/01/25 00:15:06;;;;;;;57.70;32.65;;;4.90;99.90;;;;;;6158694;23;20024;-88
2022/01/25 00:30:20;;;;;;;55.97;32.55;;;5.00;99.90;;;;;;6160122;23;20028;-88
2022/01/25 00:32:35;;;;;;;57.20;33.08;;;4.90;99.90;;;;;;6157986;23;20021;-88
2022/01/25 00:35:00;;;;;;;57.30;34.03;;;5.00;99.90;;;;;;6134680;23;20031;-88
2022/01/25 00:37:26;;;;;;;58.97;33.97;;;4.90;99.90;;;;;;6186371;23;20032;-88
2022/01/25 00:39:51;;;;;;;57.43;33.90;;;4.90;99.90;;;;;;6135633;23;20021;-89
2022/01/25 00:42:17;;;;;;;57.57;33.87;;;4.90;99.90;;;;;;6135339;23;20029;-88
2022/01/25 00:44:47;;;;;;;56.33;32.93;;;4.90;99.90;;;;;;6135243;23;20082;-87
2022/01/25 00:47:15;;;;;;;59.42;34.40;;;4.90;99.90;;;;;;6135755;23;20350;-88
2022/01/25 00:49:43;;;;;;;57.88;34.05;;;4.90;99.90;;;;;;6135321;23;20022;-88
2022/01/25 00:55:12;;;;;;;64.55;34.55;;;4.80;99.90;;;;;;6042735;23;20023;-88
2022/01/25 00:57:38;;;;;;;53.30;33.50;;;4.90;99.90;;;;;;6144062;23;20037;-88
2022/01/25 01:00:10;;;;;;;57.63;32.00;;;4.90;99.90;;;;;;6186001;23;20520;-88
2022/01/25 01:02:36;;;;;;;58.88;33.88;;;4.90;99.90;;;;;;6164771;23;20017;-88
2022/01/25 01:05:03;;;;;;;57.97;33.20;;;4.90;99.90;;;;;;6164244;23;20090;-88
2022/01/25 01:07:29;;;;;;;;;;;4.90;99.90;;;;;;6165500;23;20021;-88
2022/01/25 01:09:55;;;;;;;60.58;33.33;;;4.80;99.90;;;;;;6214249;23;20219;-90
2022/01/25 01:13:03;;;;;;;61.22;34.50;;;4.80;99.90;;;;;;6164394;23;20035;-89
2022/01/25 01:31:49;;;;;;;58.85;33.83;;;4.80;99.90;;;;;;6215750;23;20032;-87
2022/01/25 01:45:27;;;;;;;58.63;33.88;;;4.80;99.90;;;;;;6188749;23;20021;-87
2022/01/25 01:47:39;;;;;;;66.75;36.22;;;4.80;99.90;;;;;;6211190;23;20075;-87
2022/01/25 01:50:12;;;;;;;59.22;34.22;;;4.80;99.90;;;;;;6164382;23;20025;-87
2022/01/25 01:52:38;;;;;;;58.85;34.25;;;4.80;99.90;;;;;;6163883;23;20423;-87
2022/01/25 01:55:06;;;;;;;59.07;33.83;;;4.80;99.90;;;;;;6189519;23;20056;-88
2022/01/25 01:57:32;;;;;;;60.75;34.83;;;4.80;99.90;;;;;;6164217;23;20021;-88
2022/01/25 01:59:58;;;;;;;61.95;34.58;;;4.80;99.90;;;;;;6163396;23;20505;-87
2022/01/25 02:10:10;;;;;;;61.45;34.83;;;4.70;99.90;;;;;;6150721;23;20026;-87
2022/01/25 02:12:36;;;;;;;64.70;36.25;;;4.80;99.90;;;;;;6129817;23;20518;-87
2022/01/25 02:15:04;;;;;;;63.87;35.17;;;4.80;99.90;;;;;;6129673;23;20029;-90
2022/01/25 02:25:27;;;;;;;61.00;33.22;;;4.80;99.90;;;;;;6126080;23;20026;-88
2022/01/25 02:27:53;;;;;;;61.80;34.20;;;4.70;99.90;;;;;;6100514;23;20091;-87
2022/01/25 02:30:19;;;;;;;69.20;35.13;;;4.70;99.90;;;;;;6100229;23;20018;-87
2022/01/25 02:32:45;;;;;;;58.92;33.88;;;4.70;99.90;;;;;;6101057;23;20109;-87
2022/01/25 02:35:11;;;;;;;62.23;34.40;;;4.70;99.90;;;;;;6100590;23;20388;-91
2022/01/25 02:41:41;;;;;;;60.70;33.28;;;4.80;99.90;;;;;;6070529;23;20046;-89
2022/01/25 02:44:08;;;;;;;61.33;33.75;;;4.80;99.90;;;;;;6045586;23;20022;-91
2022/01/25 02:49:05;;;;;;;61.83;35.53;;;4.70;99.90;;;;;;6070627;23;20126;-88
2022/01/25 02:51:38;;;;;;;61.40;35.22;;;4.70;99.90;;;;;;6045742;23;20129;-86
2022/01/25 02:54:08;;;;;;;58.45;33.00;;;4.70;99.90;;;;;;6045404;23;20026;-88
2022/01/25 02:59:10;;;;;;;63.35;34.33;;;4.70;99.90;;;;;;6150565;23;20085;-89
2022/01/25 03:01:37;;;;;;;61.47;35.47;;;4.70;99.90;;;;;;6129694;23;20025;-91
2022/01/25 03:04:04;;;;;;;59.10;34.17;;;4.70;99.90;;;;;;6104705;23;20463;-90
2022/01/25 03:06:39;;;;;;;;;;;4.70;99.90;;;;;;6132200;23;20104;-91
2022/01/25 03:09:33;;;;;;;67.60;34.55;;;4.70;99.90;;;;;;6155170;23;19979;-85
2022/01/25 03:12:31;;;;;;;64.05;34.42;;;4.70;99.90;;;;;;6131013;23;20018;-87
2022/01/25 03:15:12;;;;;;;64.10;35.40;;;4.70;99.90;;;;;;6130920;23;20028;-88
2022/01/25 03:17:45;;;;;;;61.75;34.03;;;4.60;99.90;;;;;;6131622;23;20039;-88
2022/01/25 03:20:19;;;;;;;62.70;34.83;;;4.70;99.90;;;;;;6131668;23;20030;-88
2022/01/25 03:22:58;;;;;;;63.28;34.92;;;4.70;99.90;;;;;;6130324;23;20018;-90
2022/01/25 03:25:25;;;;;;;64.72;35.30;;;4.70;99.90;;;;;;6131602;23;20017;-89
2022/01/25 03:27:51;;;;;;;62.65;34.63;;;4.60;99.90;;;;;;6131551;23;20112;-90
2022/01/25 03:30:16;;;;;;;60.27;36.40;;;4.60;99.90;;;;;;6131444;23;20060;-91
2022/01/25 03:32:42;;;;;;;61.30;35.43;;;4.60;99.90;;;;;;6157811;23;20104;-89
2022/01/25 03:35:08;;;;;;;60.07;34.93;;;4.60;99.90;;;;;;6131542;23;20412;-85
2022/01/25 03:37:34;;;;;;;58.93;34.17;;;4.60;99.90;;;;;;6131357;23;20053;-85
2022/01/25 03:40:00;;;;;;;63.47;35.83;;;4.60;99.90;;;;;;6157618;23;20061;-84
2022/01/25 03:42:48;;;;;;;64.17;34.67;;;4.60;99.90;;;;;;6131723;23;20025;-84
2022/01/25 03:45:32;;;;;;;63.20;36.05;;;4.60;99.90;;;;;;6131928;23;20462;-85
2022/01/25 03:50:45;;;;;;;62.65;35.65;;;4.60;99.90;;;;;;6131994;23;20032;-86
2022/01/25 03:53:13;;;;;;;64.00;35.72;;;4.60;99.90;;;;;;6132348;23;20024;-88
2022/01/25 03:55:40;;;;;;;62.90;35.67;;;4.60;99.90;;;;;;6130990;23;20129;-86
2022/01/25 03:58:06;;;;;;;61.80;35.50;;;4.60;99.90;;;;;;6130870;23;20025;-88
2022/01/25 04:08:09;;;;;;;65.25;35.58;;;4.60;99.90;;;;;;6133300;23;20018;-86
2022/01/25 04:10:35;;;;;;;;;;;4.60;99.90;;;;;;6133478;23;20017;-87
2022/01/25 04:13:01;;;;;;;63.25;35.58;;;4.60;99.90;;;;;;6132347;23;19916;-87
2022/01/25 04:15:27;;;;;;;67.30;36.63;;;4.60;99.90;;;;;;6133960;23;20022;-87
2022/01/25 04:18:34;;;;;;;64.50;36.63;;;4.70;99.90;;;;;;6135097;23;20018;-86
2022/01/25 04:26:45;;;;;;;62.75;35.58;;;4.60;99.90;;;;;;6130558;23;20018;-87
2022/01/25 04:29:11;;;;;;;60.73;35.07;;;4.60;99.90;;;;;;6130774;23;20514;-87
2022/01/25 04:31:37;;;;;;;66.17;35.90;;;4.60;99.90;;;;;;6130628;23;20064;-90
2022/01/25 04:34:23;;;;;;;67.47;36.53;;;4.60;99.90;;;;;;6130365;23;20037;-86
2022/01/25 04:49:47;;;;;;;66.75;35.90;;;4.60;99.90;;;;;;6156836;23;20399;-88
2022/01/25 04:52:17;;;;;;;68.30;37.20;;;4.60;99.90;;;;;;6130388;23;20017;-86
2022/01/25 05:02:28;;;;;;;63.33;35.45;;;4.60;99.90;;;;;;6156232;23;20021;-86
2022/01/25 05:05:08;;;;;;;70.97;37.55;;;4.60;99.90;;;;;;6134815;23;20029;-90
2022/01/25 05:07:43;;;;;;;63.28;35.25;;;4.60;99.90;;;;;;6161330;23;20024;-88
2022/01/25 05:10:09;;;;;;;65.32;35.03;;;4.60;99.90;;;;;;6162703;23;20320;-88
2022/01/25 05:15:48;;;;;;;67.17;37.13;;;4.60;99.90;;;;;;6160191;23;20029;-86
2022/01/25 05:19:20;;;;;;;66.00;36.45;;;4.60;99.90;;;;;;6158971;23;20338;-87
2022/01/25 05:24:38;;;;;;;65.85;36.33;;;4.60;99.90;;;;;;6185599;23;20036;-87
2022/01/25 05:27:05;;;;;;;67.90;35.53;;;4.60;99.90;;;;;;6159261;23;20096;-86
2022/01/25 05:29:31;;;;;;;69.40;37.35;;;4.60;99.90;;;;;;6159465;23;20032;-90
2022/01/25 05:31:58;;;;;;;62.43;36.47;;;4.60;99.90;;;;;;6158107;23;20013;-88
2022/01/25 05:34:24;;;;;;;66.68;36.75;;;4.60;99.90;;;;;;6182997;23;20059;-88
2022/01/25 05:36:50;;;;;;;62.50;35.83;;;4.60;99.90;;;;;;6159456;23;20009;-85
2022/01/25 05:39:21;;;;;;;68.90;36.47;;;4.60;99.90;;;;;;6185745;23;20091;-86
2022/01/25 05:41:55;;;;;;;70.25;37.17;;;4.60;99.90;;;;;;6158533;23;20024;-87
2022/01/25 05:51:56;;;;;;;63.92;35.25;;;4.60;99.90;;;;;;6157496;23;20022;-89
2022/01/25 05:57:11;;;;;;;;;;;4.70;99.90;;;;;;6158903;23;20022;-88
2022/01/25 05:59:37;;;;;;;63.85;35.00;;;4.60;99.90;;;;;;6106613;23;19917;-85
2022/01/25 06:02:04;;;;;;;63.88;36.78;;;4.70;99.90;;;;;;6105325;23;20030;-90
2022/01/25 06:04:57;;;;;;;67.10;35.60;;;4.70;99.90;;;;;;6154645;23;20029;-91
2022/01/25 06:07:54;;;;;;;68.30;36.45;;;4.70;99.90;;;;;;6111126;23;20064;-87
2022/01/25 06:10:40;;;;;;;66.72;35.10;;;4.70;99.90;;;;;;6127210;23;20025;-91
2022/01/25 06:13:06;;;;;;;62.17;34.58;;;4.70;99.90;;;;;;6106432;23;20064;-90
2022/01/25 06:15:32;;;;;;;65.93;36.60;;;4.70;99.90;;;;;;6130451;23;20021;-88
2022/01/25 06:17:58;;;;;;;63.47;36.23;;;4.70;99.90;;;;;;6130237;23;20026;-89
2022/01/25 06:20:24;;;;;;;71.27;37.37;;;4.70;99.90;;;;;;6155914;23;20108;-91
2022/01/25 06:22:49;;;;;;;65.57;34.83;;;4.70;99.90;;;;;;6130367;23;20032;-90
2022/01/25 06:25:15;;;;;;;64.37;35.80;;;4.70;99.90;;;;;;6156045;23;20022;-89
2022/01/25 06:27:43;;;;;;;66.65;36.22;;;4.70;99.90;;;;;;6156295;23;20021;-88
2022/01/25 06:30:14;;;;;;;67.75;36.38;;;4.70;99.90;;;;;;6129850;23;20092;-88
2022/01/25 06:32:41;;;;;;;66.47;36.58;;;4.70;99.90;;;;;;6129861;23;20033;-87
2022/01/25 06:35:07;;;;;;;65.10;35.63;;;4.70;99.90;;;;;;6129742;23;20021;-86
2022/01/25 06:37:34;;;;;;;64.43;36.17;;;4.70;99.90;;;;;;6129039;23;20317;-90
2022/01/25 06:39:59;;;;;;;65.82;36.45;;;4.70;99.90;;;;;;6129586;23;20044;-83
2022/01/25 06:42:31;;;;;;;64.23;36.77;;;4.70;99.90;;;;;;6129709;23;20447;-88
2022/01/25 06:45:01;;;;;;;68.53;37.40;;;4.70;99.90;;;;;;6129977;23;20096;-90
2022/01/25 06:47:27;;;;;;;71.10;36.40;;;4.70;99.90;;;;;;6154700;23;20021;-87
2022/01/25 06:49:53;;;;;;;69.47;37.57;;;4.70;99.90;;;;;;6129791;23;20515;-85
2022/01/25 06:52:19;;;;;;;67.25;36.05;;;4.70;99.90;;;;;;6156271;23;20120;-91
2022/01/25 06:54:45;;;;;;;65.97;35.97;;;4.70;99.90;;;;;;6130631;23;20022;-89
2022/01/25 06:57:12;;;;;;;62.03;34.83;;;4.70;99.90;;;;;;6156248;23;20025;-86
2022/01/25 06:59:41;;;;;;;67.70;36.53;;;4.70;99.90;;;;;;6130238;23;20175;-87
2022/01/25 07:02:07;;;;;;;66.05;36.72;;;4.70;99.90;;;;;;6105125;23;20021;-85
2022/01/25 07:04:33;;;;;;;70.85;36.67;;;4.70;99.90;;;;;;6128011;23;20115;-85
2022/01/25 07:06:59;;;;;;;68.88;35.40;;;4.70;99.90;;;;;;6129725;23;20455;-86
2022/01/25 07:09:51;;;;;;;66.50;35.40;;;4.70;99.90;;;;;;6130142;23;20097;-88
2022/01/25 07:12:17;;;;;;;66.00;35.47;;;4.70;99.90;;;;;;6154344;23;20060;-88
2022/01/25 07:14:43;;;;;;;68.70;36.83;;;4.70;99.90;;;;;;6128268;23;20387;-89
2022/01/25 07:17:08;;;;;;;68.50;37.07;;;4.70;99.90;;;;;;6127561;23;20017;-87
2022/01/25 07:19:53;;;;;;;69.70;37.93;;;4.70;99.90;;;;;;6128086;23;20021;-89
2022/01/25 07:22:44;;;;;;;65.50;34.30;;;4.70;99.90;;;;;;6127840;23;20021;-89
2022/01/25 07:25:16;;;;;;;62.92;34.95;;;4.80;99.90;;;;;;6129098;23;20324;-86
2022/01/25 07:27:41;;;;;;;70.85;36.03;;;4.70;99.90;;;;;;6129525;23;20036;-89
2022/01/25 07:30:08;;;;;;;65.10;36.30;;;4.70;99.90;;;;;;6129694;23;20025;-89
2022/01/25 07:32:33;;;;;;;70.30;37.35;;;4.70;99.90;;;;;;6130110;23;20021;-87
2022/01/25 07:34:59;;;;;;;66.10;35.90;;;4.70;99.90;;;;;;6129694;23;20168;-88
2022/01/25 07:37:25;;;;;;;65.10;36.43;;;4.70;99.90;;;;;;6129706;23;20026;-89
2022/01/25 07:39:51;;;;;;;64.33;35.43;;;4.70;99.90;;;;;;6146881;23;20078;-86
2022/01/25 07:42:20;;;;;;;62.78;34.50;;;4.70;99.90;;;;;;6161464;23;20072;-87
2022/01/25 07:44:46;;;;;;;64.70;35.47;;;4.70;99.90;;;;;;6133319;23;20025;-88
2022/01/25 07:47:12;;;;;;;67.33;36.10;;;4.80;99.90;;;;;;6131701;23;20021;-87
2022/01/25 07:49:38;;;;;;;68.10;36.25;;;4.70;99.90;;;;;;6132470;23;20022;-88
2022/01/25 07:52:04;;;;;;;67.30;35.60;;;4.70;99.90;;;;;;6132358;23;20032;-87
2022/01/25 07:55:17;;;;;;;70.15;37.17;;;4.70;99.90;;;;;;6135218;23;20017;-86
2022/01/25 07:58:07;;;;;;;65.38;35.10;;;4.70;99.90;;;;;;6137108;23;20025;-86
2022/01/25 08:00:33;;;;;;;72.28;37.53;;;4.70;99.90;;;;;;6135132;23;20324;-92
2022/01/25 08:03:00;;;;;;;72.63;37.07;;;4.70;99.90;;;;;;6134132;23;20021;-86
2022/01/25 08:05:29;;;;;;;72.55;38.30;;;4.70;99.90;;;;;;6136570;23;20018;-87
2022/01/25 08:07:59;;;;;;;64.38;35.50;;;4.70;99.90;;;;;;6135692;23;20057;-88
2022/01/25 08:10:26;;;;;;;71.28;37.17;;;4.70;99.90;;;;;;6135859;23;20100;-87
2022/01/25 08:12:55;;;;;;;68.93;36.83;;;4.70;99.90;;;;;;6159745;23;20459;-89
2022/01/25 08:15:24;;;;;;;70.32;36.92;;;4.70;99.90;;;;;;6135495;23;20022;-87
2022/01/25 08:17:51;;;;;;;69.55;37.13;;;4.70;99.90;;;;;;6135875;23;20101;-87
2022/01/25 08:20:18;;;;;;;72.03;37.85;;;4.70;99.90;;;;;;6136541;23;20047;-86
2022/01/25 08:22:44;;;;;;;;;;;4.60;99.90;;;;;;6135255;23;20273;-88
2022/01/25 08:25:11;;;;;;;71.13;37.85;;;4.70;99.90;;;;;;6135260;23;19917;-86
2022/01/25 08:27:37;;;;;;;68.43;36.78;;;4.70;99.90;;;;;;6159228;23;20029;-88
2022/01/25 08:30:04;;;;;;;70.03;36.08;;;4.60;99.90;;;;;;6134664;23;20021;-86
2022/01/25 08:32:31;;;;;;;69.95;38.30;;;4.70;99.90;;;;;;6134057;23;20026;-87
2022/01/25 08:34:58;;;;;;;77.10;39.42;;;4.60;99.90;;;;;;6134485;23;20057;-87
2022/01/25 08:37:24;;;;;;;73.15;38.10;;;4.70;99.90;;;;;;6134424;23;20041;-91
2022/01/25 08:39:50;;;;;;;71.68;38.47;;;4.60;99.90;;;;;;6135288;23;20033;-90
2022/01/25 08:42:16;;;;;;;70.67;37.13;;;4.60;99.90;;;;;;6135045;23;20021;-90
2022/01/25 08:44:41;;;;;;;72.28;39.35;;;4.70;99.90;;;;;;6134688;23;20056;-87
2022/01/25 08:47:08;;;;;;;79.57;40.13;;;4.70;99.90;;;;;;6133896;23;20025;-93
2022/01/25 08:49:34;;;;;;;73.97;38.87;;;4.70;99.90;;;;;;6134131;23;20086;-91
2022/01/25 08:52:00;;;;;;;75.68;39.38;;;4.60;99.90;;;;;;6134386;23;20722;-90
2022/01/25 08:54:26;;;;;;;80.85;39.38;;;4.70;99.90;;;;;;6134028;23;20404;-88
2022/01/25 08:56:55;;;;;;;69.57;38.33;;;4.70;99.90;;;;;;6134490;23;20032;-87
2022/01/25 08:59:30;;;;;;;72.53;38.53;;;4.70;99.90;;;;;;6158598;23;20051;-88
2022/01/25 09:01:56;;;;;;;74.50;38.87;;;4.70;99.90;;;;;;6130563;23;20031;-88
2022/01/25 09:04:22;;;;;;;73.67;39.07;;;4.70;99.90;;;;;;6135878;23;20447;-88
2022/01/25 09:06:48;;;;;;;77.23;39.50;;;4.70;99.90;;;;;;6133531;23;20036;-92
2022/01/25 09:09:14;;;;;;;72.70;36.90;;;4.70;99.90;;;;;;6133713;23;20013;-87
2022/01/25 09:11:41;;;;;;;81.50;40.58;;;4.70;99.90;;;;;;6134894;23;20297;-86
2022/01/25 09:14:08;;;;;;;72.25;38.42;;;4.60;99.90;;;;;;6137516;23;20447;-86
2022/01/25 09:16:43;;;;;;;77.15;40.13;;;4.60;99.90;;;;;;6135848;23;20096;-88
2022/01/25 09:19:09;;;;;;;78.80;39.57;;;4.60;99.90;;;;;;6133325;23;20025;-88
2022/01/25 09:21:36;;;;;;;73.73;38.23;;;4.60;99.90;;;;;;6134898;23;20021;-87
2022/01/25 09:24:02;;;;;;;70.78;38.05;;;4.70;99.90;;;;;;6134625;23;20261;-87
2022/01/25 09:26:28;;;;;;;78.60;39.90;;;4.70;99.90;;;;;;6135159;23;20026;-88
2022/01/25 09:28:55;;;;;;;74.47;38.83;;;4.70;99.90;;;;;;6132727;23;20017;-91
2022/01/25 09:31:22;;;;;;;75.20;38.28;;;4.70;99.90;;;;;;6130792;23;20025;-87
2022/01/25 09:33:48;;;;;;;75.82;37.90;;;4.70;99.90;;;;;;6134315;23;20463;-87
2022/01/25 09:36:14;;;;;;;75.93;40.43;;;4.60;99.90;;;;;;6135146;23;20021;-86
2022/01/25 09:38:40;;;;;;;77.20;41.57;;;4.70;99.90;;;;;;6131665;23;20017;-93
2022/01/25 09:41:05;;;;;;;83.93;41.40;;;4.60;99.90;;;;;;6130557;23;20466;-88
2022/01/25 09:43:32;;;;;;;79.40;41.93;;;4.60;99.90;;;;;;6131132;23;20032;-89
2022/01/25 09:45:57;;;;;;;82.07;42.08;;;4.60;99.90;;;;;;6131236;23;20017;-93
2022/01/25 09:48:24;;;;;;;84.17;44.43;;;4.70;99.90;;;;;;6130906;23;20096;-88
2022/01/25 09:50:50;;;;;;;77.32;40.25;;;4.70;99.90;;;;;;6131339;23;20451;-90
2022/01/25 09:53:16;;;;;;;78.95;40.55;;;4.70;99.90;;;;;;6131744;23;20041;-90
2022/01/25 09:55:44;;;;;;;75.13;39.27;;;4.70;99.90;;;;;;6130102;23;20029;-86
2022/01/25 09:58:15;;;;;;;76.72;40.35;;;4.70;99.90;;;;;;6134176;23;20071;-87
2022/01/25 10:00:45;;;;;;;80.90;41.30;;;4.70;99.90;;;;;;6133478;23;20018;-87
2022/01/25 10:03:32;;;;;;;74.95;39.50;;;4.70;99.90;;;;;;6133364;23;20033;-88
2022/01/25 10:06:01;;;;;;;81.10;39.53;;;4.70;99.90;;;;;;6132101;23;20029;-92
2022/01/25 10:08:34;;;;;;;83.30;42.05;;;4.60;99.90;;;;;;6131840;23;20579;-87
2022/01/25 10:11:11;;;;;;;79.05;39.53;;;4.70;99.90;;;;;;6134686;23;20018;-88
2022/01/25 10:13:46;;;;;;;77.18;39.72;;;4.70;99.90;;;;;;6136257;23;20057;-88
2022/01/25 10:16:15;;;;;;;76.88;39.63;;;4.70;99.90;;;;;;6135311;23;20100;-88
2022/01/25 10:18:45;;;;;;;83.00;38.72;;;4.70;99.90;;;;;;6135191;23;20025;-87
2022/01/25 10:21:27;;;;;;;78.10;39.28;;;4.70;99.90;;;;;;6158506;23;20026;-85
2022/01/25 10:24:16;;;;;;;78.72;39.35;;;4.70;99.90;;;;;;6137049;23;20085;-86
2022/01/25 10:26:48;;;;;;;80.70;39.65;;;4.70;99.90;;;;;;6134771;23;20031;-88
2022/01/25 10:29:34;;;;;;;77.75;40.45;;;4.70;99.90;;;;;;6131519;23;20040;-89
2022/01/25 10:32:04;;;;;;;83.68;39.80;;;4.70;99.90;;;;;;6133543;23;20490;-86
2022/01/25 10:34:37;;;;;;;79.45;38.95;;;4.70;99.90;;;;;;6135319;23;20354;-86
2022/01/25 10:37:14;;;;;;;82.57;38.45;;;4.70;99.90;;;;;;6133448;23;20045;-89
2022/01/25 10:39:44;;;;;;;79.88;38.92;;;4.70;99.90;;;;;;6134159;23;20025;-86
2022/01/25 10:42:17;;;;;;;84.03;39.75;;;4.80;99.90;;;;;;6157263;23;20029;-87
2022/01/25 10:44:50;;;;;;;76.88;39.33;;;4.70;99.90;;;;;;6134808;23;20025;-90
2022/01/25 10:47:18;;;;;;;80.18;39.60;;;4.80;99.90;;;;;;6133933;23;20112;-87
2022/01/25 10:49:50;;;;;;;82.50;38.13;;;4.80;99.90;;;;;;6159132;23;20037;-88
2022/01/25 10:52:24;;;;;;;82.60;39.85;;;4.80;99.90;;;;;;6128902;23;20080;-91
2022/01/25 10:54:50;;;;;;;78.28;38.40;;;4.80;99.90;;;;;;6130619;23;20064;-88
2022/01/25 10:57:26;;;;;;;75.35;39.25;;;4.80;99.90;;;;;;6159081;23;20025;-87
2022/01/25 10:59:59;;;;;;;94.55;43.35;;;4.80;99.90;;;;;;6156781;23;20416;-86
2022/01/25 11:02:26;;;;;;;134.02;52.17;;;4.80;99.90;;;;;;6130221;23;20030;-90
2022/01/25 11:05:03;;;;;;;119.60;49.35;;;4.80;99.90;;;;;;6129222;23;20029;-87
2022/01/25 11:07:37;;;;;;;120.47;49.83;;;4.80;99.90;;;;;;6129634;23;20034;-86
2022/01/25 11:10:04;;;;;;;114.63;47.80;;;4.80;99.90;;;;;;6129172;23;20021;-86
2022/01/25 11:12:36;;;;;;;85.25;42.38;;;4.80;99.90;;;;;;6129026;23;20017;-87
2022/01/25 11:15:05;;;;;;;139.18;52.88;;;4.80;99.90;;;;;;6129629;23;20024;-86
2022/01/25 11:17:33;;;;;;;128.68;51.22;;;4.80;99.90;;;;;;6128665;23;20092;-87
2022/01/25 11:20:00;;;;;;;101.05;43.97;;;4.70;99.90;;;;;;6128324;23;20029;-88
2022/01/25 11:22:27;;;;;;;109.13;46.30;;;4.80;99.90;;;;;;6127706;23;20033;-89
2022/01/25 11:25:02;;;;;;;139.85;54.80;;;4.80;99.90;;;;;;6128991;23;20324;-86
2022/01/25 11:27:30;;;;;;;101.45;45.47;;;4.80;99.90;;;;;;6131463;23;20026;-88
2022/01/25 11:29:58;;;;;;;97.35;44.72;;;4.80;99.90;;;;;;6131647;23;20021;-87
2022/01/25 11:32:28;;;;;;;115.50;51.17;;;4.70;99.90;;;;;;6132584;23;20100;-89
2022/01/25 11:34:55;;;;;;;93.95;42.80;;;4.80;99.90;;;;;;6131668;23;20469;-88
2022/01/25 11:37:38;;;;;;;88.78;41.22;;;4.80;99.90;;;;;;6131358;23;20026;-87
2022/01/25 11:40:26;;;;;;;90.35;42.50;;;4.70;99.90;;;;;;6132751;23;20041;-85
2022/01/25 11:42:57;;;;;;;91.28;42.55;;;4.70;99.90;;;;;;6157012;23;20030;-87
2022/01/25 11:45:26;;;;;;;88.85;41.13;;;4.70;99.90;;;;;;6131467;23;20020;-86
2022/01/25 11:47:53;;;;;;;81.65;39.97;;;4.70;99.90;;;;;;6130240;23;20115;-86
2022/01/25 11:50:24;;;;;;;83.25;41.03;;;4.70;99.90;;;;;;6155863;23;20097;-87
2022/01/25 11:52:55;;;;;;;91.88;40.75;;;4.70;99.90;;;;;;6130431;23;20021;-91
2022/01/25 11:55:26;;;;;;;90.40;41.92;;;4.70;99.90;;;;;;6130627;23;20068;-91
2022/01/25 11:58:03;;;;;;;96.00;39.55;;;4.70;99.90;;;;;;6131460;23;20104;-86
2022/01/25 12:00:37;;;;;;;83.50;39.65;;;4.70;99.90;;;;;;6131148;23;20459;-88
2022/01/25 12:03:18;;;;;;;85.65;38.33;;;4.70;99.90;;;;;;6130287;23;20022;-90
2022/01/25 12:06:19;;;;;;;87.35;40.65;;;4.70;99.90;;;;;;6155828;23;20028;-87
2022/01/25 12:11:43;;;;;;;88.82;41.30;;;4.70;99.90;;;;;;6130346;23;20025;-86
2022/01/25 12:14:43;;;;;;;96.30;42.80;;;4.70;99.90;;;;;;6130384;23;20100;-92
2022/01/25 12:17:13;;;;;;;82.53;39.85;;;4.70;99.90;;;;;;6130556;23;20057;-92
2022/01/25 12:19:47;;;;;;;85.97;42.05;;;4.70;99.90;;;;;;6132373;23;20092;-86
2022/01/25 12:22:26;;;;;;;85.03;41.13;;;4.70;99.90;;;;;;6132800;23;20451;-87
2022/01/25 12:28:03;;;;;;;91.05;41.63;;;4.70;99.90;;;;;;6130255;23;20057;-87
2022/01/25 12:30:34;;;;;;;91.88;40.83;;;4.70;99.90;;;;;;6131685;23;20207;-89
2022/01/25 12:33:21;;;;;;;91.68;41.08;;;4.70;99.90;;;;;;6131171;23;20347;-87
2022/01/25 12:36:00;;;;;;;87.20;39.22;;;4.70;99.90;;;;;;6155843;23;20029;-88
2022/01/25 12:38:47;;;;;;;87.60;41.15;;;4.70;99.90;;;;;;6130411;23;20021;-87
2022/01/25 12:41:20;;;;;;;88.55;40.45;;;4.70;99.90;;;;;;6131327;23;20021;-86
2022/01/25 12:43:51;;;;;;;86.97;40.03;;;4.70;99.90;;;;;;6113968;23;20081;-87
2022/01/25 12:46:33;;;;;;;78.45;39.88;;;4.60;99.90;;;;;;6150189;23;20051;-89
2022/01/25 12:49:05;;;;;;;85.80;40.78;;;4.70;99.90;;;;;;6164008;23;20087;-86
2022/01/25 12:51:36;;;;;;;88.75;41.80;;;4.60;99.90;;;;;;6137158;23;20056;-86
2022/01/25 12:54:07;;;;;;;92.63;41.88;;;4.70;99.90;;;;;;6160490;23;20021;-86
2022/01/25 12:56:42;;;;;;;89.80;40.58;;;4.60;99.90;;;;;;6160934;23;20013;-88
2022/01/25 12:59:14;;;;;;;92.82;39.85;;;4.60;99.90;;;;;;6168555;23;20025;-91
2022/01/25 13:01:42;;;;;;;87.70;40.30;;;4.70;99.90;;;;;;6190592;23;20017;-87
2022/01/25 13:04:12;;;;;;;86.00;38.80;;;4.70;99.90;;;;;;6164950;23;20083;-86
2022/01/25 13:06:46;;;;;;;79.03;39.75;;;4.60;99.90;;;;;;6192136;23;20044;-87
2022/01/25 13:09:31;;;;;;;84.43;40.05;;;4.70;99.90;;;;;;6195524;23;20029;-87
2022/01/25 13:17:26;;;;;;;88.03;39.92;;;4.70;99.90;;;;;;6191045;23;20021;-88
2022/01/25 13:20:04;;;;;;;87.18;40.40;;;4.70;99.90;;;;;;6167191;23;20033;-88
2022/01/25 13:22:41;;;;;;;89.50;41.35;;;4.70;99.90;;;;;;6192106;23;20021;-85
2022/01/25 13:30:44;;;;;;;90.05;39.28;;;4.80;99.90;;;;;;6220335;23;20020;-85
2022/01/25 13:33:19;;;;;;;88.40;40.28;;;4.70;99.90;;;;;;6170786;23;20151;-85
2022/01/25 13:36:07;;;;;;;90.63;41.08;;;4.70;99.90;;;;;;6196032;23;20024;-84
2022/01/25 13:38:41;;;;;;;88.03;39.38;;;4.70;99.90;;;;;;6170398;23;20076;-85
2022/01/25 13:41:18;;;;;;;85.65;39.90;;;4.70;99.90;;;;;;6172564;23;20016;-85
2022/01/25 13:46:32;;;;;;;86.15;38.30;;;4.70;99.90;;;;;;6199362;23;19912;-85
2022/01/25 13:49:03;;;;;;;99.20;46.17;;;4.70;99.90;;;;;;6174153;23;20065;-84
2022/01/25 13:51:36;;;;;;;115.68;51.72;;;4.70;99.90;;;;;;6201893;23;20031;-84
2022/01/25 13:54:02;;;;;;;101.00;45.35;;;4.70;99.90;;;;;;6176146;23;20025;-91
2022/01/25 13:56:31;;;;;;;126.80;52.58;;;4.70;99.90;;;;;;6172449;23;20350;-85
2022/01/25 13:58:58;;;;;;;111.95;47.90;;;4.70;99.90;;;;;;6172711;23;20031;-86
2022/01/25 14:01:27;;;;;;;161.65;61.55;;;4.70;99.90;;;;;;6198134;23;20056;-86
2022/01/25 14:04:10;;;;;;;154.32;60.38;;;4.70;99.90;;;;;;6199517;23;20052;-86
2022/01/25 14:06:39;;;;;;;129.18;65.13;;;4.70;99.90;;;;;;6195425;23;20024;-91
2022/01/25 14:09:15;;;;;;;108.80;56.38;;;4.70;99.90;;;;;;6170345;23;20020;-86
2022/01/25 14:25:07;;;;;;;93.43;43.55;;;4.70;99.90;;;;;;6139509;23;20017;-89
2022/01/25 14:27:40;;;;;;;88.57;41.92;;;4.70;99.90;;;;;;6135708;23;20021;-90
2022/01/25 14:30:06;;;;;;;85.80;42.33;;;4.70;99.90;;;;;;6134934;23;20077;-87
2022/01/25 14:32:34;;;;;;;98.70;45.88;;;4.70;99.90;;;;;;6132218;23;20037;-85
2022/01/25 14:35:02;;;;;;;98.25;43.55;;;4.70;99.90;;;;;;6158092;23;20061;-85
2022/01/25 14:37:27;;;;;;;92.55;42.53;;;4.60;99.90;;;;;;6131732;23;20029;-92
2022/01/25 14:40:01;;;;;;;87.00;41.37;;;4.70;99.90;;;;;;6132549;23;20025;-86
2022/01/25 14:42:29;;;;;;;90.63;41.08;;;4.60;99.90;;;;;;6106870;23;20021;-88
2022/01/25 14:45:01;;;;;;;90.00;42.95;;;4.60;99.90;;;;;;6157368;23;20507;-87
2022/01/25 14:47:35;;;;;;;93.45;41.22;;;4.60;99.90;;;;;;6139094;23;20017;-86
2022/01/25 14:50:07;;;;;;;86.03;42.58;;;4.60;99.90;;;;;;6157906;23;20080;-87
2022/01/25 14:52:34;;;;;;;88.30;41.60;;;4.60;99.90;;;;;;6136759;23;20026;-87
2022/01/25 14:55:00;;;;;;;90.80;42.50;;;4.60;99.90;;;;;;6133488;23;20032;-86
2022/01/25 14:57:37;;;;;;;90.60;42.22;;;4.60;99.90;;;;;;6156598;23;20025;-86
2022/01/25 15:00:06;;;;;;;89.53;40.92;;;4.60;99.90;;;;;;6156201;23;20026;-85
2022/01/25 15:02:32;;;;;;;96.70;43.13;;;4.60;99.90;;;;;;6158057;23;20033;-86
2022/01/25 15:04:58;;;;;;;95.97;44.27;;;4.60;99.90;;;;;;6160296;23;20025;-84
2022/01/25 15:07:36;;;;;;;92.15;43.67;;;4.60;99.90;;;;;;6158935;23;20028;-84
2022/01/25 15:10:06;;;;;;;99.07;43.08;;;4.50;99.90;;;;;;6159887;23;20025;-84
2022/01/25 15:12:47;;;;;;;90.22;41.97;;;4.50;99.90;;;;;;6160298;23;20080;-92
2022/01/25 15:15:23;;;;;;;90.97;40.20;;;4.50;99.90;;;;;;6160258;23;20346;-89
2022/01/25 15:17:50;;;;;;;90.20;41.58;;;4.50;99.90;;;;;;6163737;23;20346;-85
2022/01/25 15:20:16;;;;;;;95.87;42.50;;;4.50;99.90;;;;;;6116171;23;20102;-85
2022/01/25 15:23:02;;;;;;;96.40;43.40;;;4.50;99.90;;;;;;6162276;23;20311;-85
2022/01/25 15:25:28;;;;;;;94.47;42.65;;;4.50;99.90;;;;;;6159846;23;20025;-86
2022/01/25 15:27:55;;;;;;;97.23;42.70;;;4.50;99.90;;;;;;6086276;23;20020;-88
2022/01/25 15:30:23;;;;;;;90.38;42.15;;;4.50;99.90;;;;;;6134141;23;20021;-87
2022/01/25 15:32:49;;;;;;;90.22;42.33;;;4.50;99.90;;;;;;6110865;23;20057;-85
2022/01/25 15:35:19;;;;;;;90.05;42.53;;;4.40;99.90;;;;;;6136268;23;20014;-85
2022/01/25 15:37:49;;;;;;;97.65;43.60;;;4.40;99.90;;;;;;6113614;23;20442;-86
2022/01/25 15:40:17;;;;;;;95.45;43.05;;;4.40;99.90;;;;;;6138066;23;20483;-92
2022/01/25 15:42:43;;;;;;;103.13;44.80;;;4.40;99.90;;;;;;6110877;23;20013;-87